sensor_id;sensor_type;location;lat;lon;timestamp;P1;durP1;ratioP1;P2;durP2;ratioP2
25503;SDS011;13410;52.114;5.718;2022-12-29T00:02:19;4.80;;;3.70;;
25503;SDS011;13410;52.114;5.718;2022-12-29T00:04:45;5.90;;;3.60;;
25503;SDS011;13410;52.114;5.718;2022-12-29T00:07:10;4.45;;;3.60;;
25503;SDS011;13410;52.114;5.718;2022-12-29T00:09:36;5.07;;;3.65;;
25503;SDS011;13410;52.114;5.718;2022-12-29T00:12:02;4.18;;;3.45;;
25503;SDS011;13410;52.114;5.718;2022-12-29T00:14:29;6.63;;;3.83;;
25503;SDS011;13410;52.114;5.718;2022-12-29T00:17:13;5.40;;;3.65;;
25503;SDS011;13410;52.114;5.718;2022-12-29T00:19:39;5.40;;;3.50;;
25503;SDS011;13410;52.114;5.718;2022-12-29T00:22:23;4.40;;;3.30;;
25503;SDS011;13410;52.114;5.718;2022-12-29T00:25:08;4.80;;;3.60;;
25503;SDS011;13410;52.114;5.718;2022-12-29T00:27:54;4.50;;;3.28;;
25503;SDS011;13410;52.114;5.718;2022-12-29T00:30:39;7.25;;;3.33;;
25503;SDS011;13410;52.114;5.718;2022-12-29T00:33:26;6.15;;;3.28;;
25503;SDS011;13410;52.114;5.718;2022-12-29T00:36:46;4.35;;;3.17;;
25503;SDS011;13410;52.114;5.718;2022-12-29T00:39:07;5.63;;;3.35;;
25503;SDS011;13410;52.114;5.718;2022-12-29T00:41:54;4.03;;;3.13;;
25503;SDS011;13410;52.114;5.718;2022-12-29T00:44:38;3.60;;;2.90;;
25503;SDS011;13410;52.114;5.718;2022-12-29T00:47:03;4.43;;;3.00;;
25503;SDS011;13410;52.114;5.718;2022-12-29T00:49:29;4.75;;;3.00;;
25503;SDS011;13410;52.114;5.718;2022-12-29T00:51:57;4.90;;;3.08;;
25503;SDS011;13410;52.114;5.718;2022-12-29T00:54:22;5.30;;;2.88;;
25503;SDS011;13410;52.114;5.718;2022-12-29T00:56:49;4.65;;;2.83;;
25503;SDS011;13410;52.114;5.718;2022-12-29T00:59:15;3.88;;;2.53;;
25503;SDS011;13410;52.114;5.718;2022-12-29T01:01:42;4.00;;;2.53;;
25503;SDS011;13410;52.114;5.718;2022-12-29T01:04:08;3.40;;;2.58;;
25503;SDS011;13410;52.114;5.718;2022-12-29T01:06:35;3.15;;;2.30;;
25503;SDS011;13410;52.114;5.718;2022-12-29T01:09:02;5.90;;;2.35;;
25503;SDS011;13410;52.114;5.718;2022-12-29T01:11:46;2.85;;;2.30;;
25503;SDS011;13410;52.114;5.718;2022-12-29T01:14:12;2.92;;;2.30;;
25503;SDS011;13410;52.114;5.718;2022-12-29T01:16:38;2.55;;;2.00;;
25503;SDS011;13410;52.114;5.718;2022-12-29T01:19:03;3.67;;;2.20;;
25503;SDS011;13410;52.114;5.718;2022-12-29T01:21:29;2.33;;;1.90;;
25503;SDS011;13410;52.114;5.718;2022-12-29T01:23:55;2.63;;;1.75;;
25503;SDS011;13410;52.114;5.718;2022-12-29T01:26:20;3.25;;;1.88;;
25503;SDS011;13410;52.114;5.718;2022-12-29T01:28:46;5.13;;;2.00;;
25503;SDS011;13410;52.114;5.718;2022-12-29T01:31:12;2.67;;;1.67;;
25503;SDS011;13410;52.114;5.718;2022-12-29T01:33:39;2.65;;;1.80;;
25503;SDS011;13410;52.114;5.718;2022-12-29T01:36:07;2.67;;;1.67;;
25503;SDS011;13410;52.114;5.718;2022-12-29T01:38:35;2.92;;;1.50;;
25503;SDS011;13410;52.114;5.718;2022-12-29T01:41:02;2.05;;;1.70;;
25503;SDS011;13410;52.114;5.718;2022-12-29T01:43:45;2.03;;;1.60;;
25503;SDS011;13410;52.114;5.718;2022-12-29T01:46:31;3.33;;;1.60;;
25503;SDS011;13410;52.114;5.718;2022-12-29T01:51:50;4.18;;;1.63;;
25503;SDS011;13410;52.114;5.718;2022-12-29T01:56:50;2.60;;;1.60;;
25503;SDS011;13410;52.114;5.718;2022-12-29T01:59:19;3.50;;;1.70;;
25503;SDS011;13410;52.114;5.718;2022-12-29T02:01:47;2.53;;;1.77;;
25503;SDS011;13410;52.114;5.718;2022-12-29T02:04:14;2.08;;;1.75;;
25503;SDS011;13410;52.114;5.718;2022-12-29T02:06:48;2.85;;;2.13;;
25503;SDS011;13410;52.114;5.718;2022-12-29T02:09:18;2.60;;;1.70;;
25503;SDS011;13410;52.114;5.718;2022-12-29T02:11:44;2.70;;;1.83;;
25503;SDS011;13410;52.114;5.718;2022-12-29T02:14:13;4.15;;;2.05;;
25503;SDS011;13410;52.114;5.718;2022-12-29T02:16:47;3.08;;;2.10;;
25503;SDS011;13410;52.114;5.718;2022-12-29T02:22:42;5.35;;;2.00;;
25503;SDS011;13410;52.114;5.718;2022-12-29T02:28:17;3.03;;;2.05;;
25503;SDS011;13410;52.114;5.718;2022-12-29T02:31:24;4.43;;;2.15;;
25503;SDS011;13410;52.114;5.718;2022-12-29T02:34:22;5.82;;;1.90;;
25503;SDS011;13410;52.114;5.718;2022-12-29T02:37:03;4.47;;;1.67;;
25503;SDS011;13410;52.114;5.718;2022-12-29T02:42:30;4.32;;;1.50;;
25503;SDS011;13410;52.114;5.718;2022-12-29T02:45:24;2.65;;;1.20;;
25503;SDS011;13410;52.114;5.718;2022-12-29T02:48:02;4.03;;;1.10;;
25503;SDS011;13410;52.114;5.718;2022-12-29T02:50:53;1.95;;;0.77;;
25503;SDS011;13410;52.114;5.718;2022-12-29T02:53:37;3.13;;;1.00;;
25503;SDS011;13410;52.114;5.718;2022-12-29T02:56:22;3.28;;;1.00;;
25503;SDS011;13410;52.114;5.718;2022-12-29T02:58:48;1.42;;;0.80;;
25503;SDS011;13410;52.114;5.718;2022-12-29T03:01:26;1.50;;;0.70;;
25503;SDS011;13410;52.114;5.718;2022-12-29T03:06:51;2.03;;;0.80;;
25503;SDS011;13410;52.114;5.718;2022-12-29T03:12:14;1.88;;;0.93;;
25503;SDS011;13410;52.114;5.718;2022-12-29T03:15:32;2.78;;;0.98;;
25503;SDS011;13410;52.114;5.718;2022-12-29T03:18:24;3.17;;;1.00;;
25503;SDS011;13410;52.114;5.718;2022-12-29T03:24:17;3.13;;;0.98;;
25503;SDS011;13410;52.114;5.718;2022-12-29T03:26:44;1.90;;;0.90;;
25503;SDS011;13410;52.114;5.718;2022-12-29T03:29:11;2.58;;;1.10;;
25503;SDS011;13410;52.114;5.718;2022-12-29T03:31:40;2.75;;;1.13;;
25503;SDS011;13410;52.114;5.718;2022-12-29T03:34:07;3.22;;;1.17;;
25503;SDS011;13410;52.114;5.718;2022-12-29T03:36:38;2.78;;;1.00;;
25503;SDS011;13410;52.114;5.718;2022-12-29T03:39:09;5.22;;;1.30;;
25503;SDS011;13410;52.114;5.718;2022-12-29T03:41:39;2.80;;;1.17;;
25503;SDS011;13410;52.114;5.718;2022-12-29T03:44:07;3.20;;;1.17;;
25503;SDS011;13410;52.114;5.718;2022-12-29T03:46:33;1.38;;;1.00;;
25503;SDS011;13410;52.114;5.718;2022-12-29T03:48:59;2.22;;;1.00;;
25503;SDS011;13410;52.114;5.718;2022-12-29T03:51:24;1.80;;;0.90;;
25503;SDS011;13410;52.114;5.718;2022-12-29T03:53:50;2.92;;;1.00;;
25503;SDS011;13410;52.114;5.718;2022-12-29T03:56:16;3.92;;;1.10;;
25503;SDS011;13410;52.114;5.718;2022-12-29T03:58:41;2.35;;;0.95;;
25503;SDS011;13410;52.114;5.718;2022-12-29T04:01:07;3.72;;;1.30;;
25503;SDS011;13410;52.114;5.718;2022-12-29T04:03:32;3.45;;;1.38;;
25503;SDS011;13410;52.114;5.718;2022-12-29T04:05:58;2.58;;;1.10;;
25503;SDS011;13410;52.114;5.718;2022-12-29T04:08:23;3.40;;;0.98;;
25503;SDS011;13410;52.114;5.718;2022-12-29T04:10:49;3.45;;;1.38;;
25503;SDS011;13410;52.114;5.718;2022-12-29T04:13:15;4.55;;;1.40;;
25503;SDS011;13410;52.114;5.718;2022-12-29T04:15:42;3.50;;;1.20;;
25503;SDS011;13410;52.114;5.718;2022-12-29T04:18:10;2.15;;;1.30;;
25503;SDS011;13410;52.114;5.718;2022-12-29T04:20:35;3.90;;;1.30;;
25503;SDS011;13410;52.114;5.718;2022-12-29T04:23:20;3.28;;;1.30;;
25503;SDS011;13410;52.114;5.718;2022-12-29T04:25:45;4.80;;;1.42;;
25503;SDS011;13410;52.114;5.718;2022-12-29T04:28:12;3.33;;;1.10;;
25503;SDS011;13410;52.114;5.718;2022-12-29T04:30:38;4.00;;;1.35;;
25503;SDS011;13410;52.114;5.718;2022-12-29T04:33:04;3.88;;;1.27;;
25503;SDS011;13410;52.114;5.718;2022-12-29T04:35:29;4.65;;;1.27;;
25503;SDS011;13410;52.114;5.718;2022-12-29T04:37:55;7.13;;;1.40;;
25503;SDS011;13410;52.114;5.718;2022-12-29T04:40:20;4.63;;;1.10;;
25503;SDS011;13410;52.114;5.718;2022-12-29T04:42:46;4.70;;;1.40;;
25503;SDS011;13410;52.114;5.718;2022-12-29T04:45:11;7.13;;;1.05;;
25503;SDS011;13410;52.114;5.718;2022-12-29T04:47:37;5.57;;;1.15;;
25503;SDS011;13410;52.114;5.718;2022-12-29T04:50:03;4.35;;;1.25;;
25503;SDS011;13410;52.114;5.718;2022-12-29T04:52:29;4.13;;;0.85;;
25503;SDS011;13410;52.114;5.718;2022-12-29T04:54:55;5.70;;;1.08;;
25503;SDS011;13410;52.114;5.718;2022-12-29T04:57:20;5.57;;;1.30;;
25503;SDS011;13410;52.114;5.718;2022-12-29T04:59:46;5.50;;;1.08;;
25503;SDS011;13410;52.114;5.718;2022-12-29T05:02:11;6.63;;;1.10;;
25503;SDS011;13410;52.114;5.718;2022-12-29T05:04:37;6.30;;;1.08;;
25503;SDS011;13410;52.114;5.718;2022-12-29T05:07:02;7.75;;;1.35;;
25503;SDS011;13410;52.114;5.718;2022-12-29T05:09:28;5.10;;;1.05;;
25503;SDS011;13410;52.114;5.718;2022-12-29T05:11:54;5.10;;;1.00;;
25503;SDS011;13410;52.114;5.718;2022-12-29T05:14:20;8.95;;;1.05;;
25503;SDS011;13410;52.114;5.718;2022-12-29T05:16:46;6.53;;;1.13;;
25503;SDS011;13410;52.114;5.718;2022-12-29T05:19:12;7.63;;;1.23;;
25503;SDS011;13410;52.114;5.718;2022-12-29T05:21:37;4.10;;;0.80;;
25503;SDS011;13410;52.114;5.718;2022-12-29T05:24:03;8.95;;;1.20;;
25503;SDS011;13410;52.114;5.718;2022-12-29T05:26:28;6.20;;;1.10;;
25503;SDS011;13410;52.114;5.718;2022-12-29T05:28:54;7.03;;;1.13;;
25503;SDS011;13410;52.114;5.718;2022-12-29T05:31:20;8.02;;;1.10;;
25503;SDS011;13410;52.114;5.718;2022-12-29T05:33:45;8.65;;;1.00;;
25503;SDS011;13410;52.114;5.718;2022-12-29T05:36:11;6.03;;;1.13;;
25503;SDS011;13410;52.114;5.718;2022-12-29T05:38:37;9.35;;;1.20;;
25503;SDS011;13410;52.114;5.718;2022-12-29T05:41:02;7.50;;;1.17;;
25503;SDS011;13410;52.114;5.718;2022-12-29T05:43:28;6.18;;;1.00;;
25503;SDS011;13410;52.114;5.718;2022-12-29T05:45:53;7.75;;;1.23;;
25503;SDS011;13410;52.114;5.718;2022-12-29T05:48:19;8.50;;;0.95;;
25503;SDS011;13410;52.114;5.718;2022-12-29T05:50:49;5.97;;;1.05;;
25503;SDS011;13410;52.114;5.718;2022-12-29T05:53:15;5.47;;;1.20;;
25503;SDS011;13410;52.114;5.718;2022-12-29T05:55:42;7.13;;;1.42;;
25503;SDS011;13410;52.114;5.718;2022-12-29T05:58:08;9.93;;;1.85;;
25503;SDS011;13410;52.114;5.718;2022-12-29T06:00:34;5.88;;;1.35;;
25503;SDS011;13410;52.114;5.718;2022-12-29T06:02:59;8.82;;;1.40;;
25503;SDS011;13410;52.114;5.718;2022-12-29T06:05:25;9.43;;;1.63;;
25503;SDS011;13410;52.114;5.718;2022-12-29T06:07:51;6.45;;;1.60;;
25503;SDS011;13410;52.114;5.718;2022-12-29T06:10:16;8.75;;;1.60;;
25503;SDS011;13410;52.114;5.718;2022-12-29T06:12:42;5.35;;;1.83;;
25503;SDS011;13410;52.114;5.718;2022-12-29T06:15:08;10.77;;;1.67;;
25503;SDS011;13410;52.114;5.718;2022-12-29T06:17:33;7.03;;;1.50;;
25503;SDS011;13410;52.114;5.718;2022-12-29T06:19:59;6.57;;;1.52;;
25503;SDS011;13410;52.114;5.718;2022-12-29T06:22:24;5.28;;;1.15;;
25503;SDS011;13410;52.114;5.718;2022-12-29T06:24:50;6.35;;;1.48;;
25503;SDS011;13410;52.114;5.718;2022-12-29T06:27:16;6.70;;;1.70;;
25503;SDS011;13410;52.114;5.718;2022-12-29T06:29:41;7.18;;;1.50;;
25503;SDS011;13410;52.114;5.718;2022-12-29T06:32:07;6.70;;;1.27;;
25503;SDS011;13410;52.114;5.718;2022-12-29T06:34:34;7.85;;;1.48;;
25503;SDS011;13410;52.114;5.718;2022-12-29T06:37:00;8.50;;;1.27;;
25503;SDS011;13410;52.114;5.718;2022-12-29T06:39:26;6.68;;;1.45;;
25503;SDS011;13410;52.114;5.718;2022-12-29T06:41:52;7.68;;;1.50;;
25503;SDS011;13410;52.114;5.718;2022-12-29T06:44:19;5.70;;;1.30;;
25503;SDS011;13410;52.114;5.718;2022-12-29T06:46:46;4.20;;;1.10;;
25503;SDS011;13410;52.114;5.718;2022-12-29T06:49:12;6.38;;;1.20;;
25503;SDS011;13410;52.114;5.718;2022-12-29T06:51:37;5.60;;;1.30;;
25503;SDS011;13410;52.114;5.718;2022-12-29T06:54:03;7.75;;;1.50;;
25503;SDS011;13410;52.114;5.718;2022-12-29T06:56:28;11.27;;;1.98;;
25503;SDS011;13410;52.114;5.718;2022-12-29T06:58:54;8.75;;;1.55;;
25503;SDS011;13410;52.114;5.718;2022-12-29T07:01:19;6.10;;;1.40;;
25503;SDS011;13410;52.114;5.718;2022-12-29T07:03:45;6.82;;;1.70;;
25503;SDS011;13410;52.114;5.718;2022-12-29T07:06:11;10.55;;;1.73;;
25503;SDS011;13410;52.114;5.718;2022-12-29T07:08:36;4.85;;;1.52;;
25503;SDS011;13410;52.114;5.718;2022-12-29T07:11:02;6.40;;;1.40;;
25503;SDS011;13410;52.114;5.718;2022-12-29T07:13:27;9.75;;;1.90;;
25503;SDS011;13410;52.114;5.718;2022-12-29T07:15:53;8.85;;;2.00;;
25503;SDS011;13410;52.114;5.718;2022-12-29T07:18:18;7.13;;;1.23;;
25503;SDS011;13410;52.114;5.718;2022-12-29T07:20:44;7.05;;;1.15;;
25503;SDS011;13410;52.114;5.718;2022-12-29T07:23:10;6.28;;;1.70;;
25503;SDS011;13410;52.114;5.718;2022-12-29T07:25:35;9.43;;;2.83;;
25503;SDS011;13410;52.114;5.718;2022-12-29T07:28:02;12.15;;;1.75;;
25503;SDS011;13410;52.114;5.718;2022-12-29T07:30:28;9.98;;;2.88;;
25503;SDS011;13410;52.114;5.718;2022-12-29T07:32:54;8.10;;;2.53;;
25503;SDS011;13410;52.114;5.718;2022-12-29T07:35:19;8.50;;;2.63;;
25503;SDS011;13410;52.114;5.718;2022-12-29T07:37:45;9.90;;;3.00;;
25503;SDS011;13410;52.114;5.718;2022-12-29T07:40:10;9.15;;;2.40;;
25503;SDS011;13410;52.114;5.718;2022-12-29T07:42:36;9.15;;;2.38;;
25503;SDS011;13410;52.114;5.718;2022-12-29T07:45:02;8.25;;;2.50;;
25503;SDS011;13410;52.114;5.718;2022-12-29T07:47:28;8.40;;;3.22;;
25503;SDS011;13410;52.114;5.718;2022-12-29T07:49:53;8.15;;;2.85;;
25503;SDS011;13410;52.114;5.718;2022-12-29T07:52:19;11.07;;;2.47;;
25503;SDS011;13410;52.114;5.718;2022-12-29T07:54:44;10.20;;;2.97;;
25503;SDS011;13410;52.114;5.718;2022-12-29T07:57:10;11.40;;;3.67;;
25503;SDS011;13410;52.114;5.718;2022-12-29T07:59:36;10.13;;;3.70;;
25503;SDS011;13410;52.114;5.718;2022-12-29T08:02:01;10.30;;;3.75;;
25503;SDS011;13410;52.114;5.718;2022-12-29T08:04:27;10.23;;;3.75;;
25503;SDS011;13410;52.114;5.718;2022-12-29T08:06:52;10.07;;;4.00;;
25503;SDS011;13410;52.114;5.718;2022-12-29T08:09:18;12.90;;;5.30;;
25503;SDS011;13410;52.114;5.718;2022-12-29T08:11:44;13.63;;;5.90;;
25503;SDS011;13410;52.114;5.718;2022-12-29T08:14:09;16.23;;;6.50;;
25503;SDS011;13410;52.114;5.718;2022-12-29T08:16:35;28.42;;;12.02;;
25503;SDS011;13410;52.114;5.718;2022-12-29T08:19:01;18.55;;;7.78;;
25503;SDS011;13410;52.114;5.718;2022-12-29T08:21:27;16.83;;;6.50;;
25503;SDS011;13410;52.114;5.718;2022-12-29T08:23:53;17.55;;;5.72;;
25503;SDS011;13410;52.114;5.718;2022-12-29T08:26:19;18.35;;;7.18;;
25503;SDS011;13410;52.114;5.718;2022-12-29T08:28:45;14.30;;;4.75;;
25503;SDS011;13410;52.114;5.718;2022-12-29T08:31:11;7.65;;;3.30;;
25503;SDS011;13410;52.114;5.718;2022-12-29T08:33:36;14.07;;;4.25;;
25503;SDS011;13410;52.114;5.718;2022-12-29T08:36:03;12.77;;;3.65;;
25503;SDS011;13410;52.114;5.718;2022-12-29T08:38:30;17.80;;;3.85;;
25503;SDS011;13410;52.114;5.718;2022-12-29T08:40:56;13.38;;;4.50;;
25503;SDS011;13410;52.114;5.718;2022-12-29T08:43:22;11.57;;;3.70;;
25503;SDS011;13410;52.114;5.718;2022-12-29T08:45:47;11.45;;;3.13;;
25503;SDS011;13410;52.114;5.718;2022-12-29T08:48:13;13.55;;;4.13;;
25503;SDS011;13410;52.114;5.718;2022-12-29T08:50:43;12.27;;;3.72;;
25503;SDS011;13410;52.114;5.718;2022-12-29T08:53:09;11.90;;;3.03;;
25503;SDS011;13410;52.114;5.718;2022-12-29T08:55:35;12.45;;;3.25;;
25503;SDS011;13410;52.114;5.718;2022-12-29T08:58:00;11.70;;;3.03;;
25503;SDS011;13410;52.114;5.718;2022-12-29T09:00:26;15.65;;;5.07;;
25503;SDS011;13410;52.114;5.718;2022-12-29T09:02:51;11.18;;;3.20;;
25503;SDS011;13410;52.114;5.718;2022-12-29T09:05:17;15.02;;;3.45;;
25503;SDS011;13410;52.114;5.718;2022-12-29T09:07:42;14.15;;;4.22;;
25503;SDS011;13410;52.114;5.718;2022-12-29T09:10:08;10.88;;;3.53;;
25503;SDS011;13410;52.114;5.718;2022-12-29T09:12:34;8.23;;;3.35;;
25503;SDS011;13410;52.114;5.718;2022-12-29T09:14:59;12.38;;;3.50;;
25503;SDS011;13410;52.114;5.718;2022-12-29T09:17:25;11.25;;;3.10;;
25503;SDS011;13410;52.114;5.718;2022-12-29T09:20:07;11.20;;;2.63;;
25503;SDS011;13410;52.114;5.718;2022-12-29T09:22:34;12.52;;;3.83;;
25503;SDS011;13410;52.114;5.718;2022-12-29T09:25:00;8.38;;;2.15;;
25503;SDS011;13410;52.114;5.718;2022-12-29T09:27:26;8.25;;;2.25;;
25503;SDS011;13410;52.114;5.718;2022-12-29T09:29:52;11.77;;;2.50;;
25503;SDS011;13410;52.114;5.718;2022-12-29T09:32:17;11.25;;;2.75;;
25503;SDS011;13410;52.114;5.718;2022-12-29T09:34:43;9.75;;;3.38;;
25503;SDS011;13410;52.114;5.718;2022-12-29T09:37:08;10.30;;;3.35;;
25503;SDS011;13410;52.114;5.718;2022-12-29T09:39:34;14.00;;;4.05;;
25503;SDS011;13410;52.114;5.718;2022-12-29T09:47:17;10.55;;;2.35;;
25503;SDS011;13410;52.114;5.718;2022-12-29T09:49:49;9.90;;;2.25;;
25503;SDS011;13410;52.114;5.718;2022-12-29T09:52:20;9.95;;;3.00;;
25503;SDS011;13410;52.114;5.718;2022-12-29T09:54:55;10.50;;;2.38;;
25503;SDS011;13410;52.114;5.718;2022-12-29T10:00:19;12.80;;;3.70;;
25503;SDS011;13410;52.114;5.718;2022-12-29T10:02:49;17.60;;;7.15;;
25503;SDS011;13410;52.114;5.718;2022-12-29T10:08:16;10.95;;;2.05;;
25503;SDS011;13410;52.114;5.718;2022-12-29T10:13:27;13.25;;;3.13;;
25503;SDS011;13410;52.114;5.718;2022-12-29T10:16:06;12.00;;;2.90;;
25503;SDS011;13410;52.114;5.718;2022-12-29T10:19:13;5.25;;;2.63;;
25503;SDS011;13410;52.114;5.718;2022-12-29T10:24:27;14.25;;;3.00;;
25503;SDS011;13410;52.114;5.718;2022-12-29T10:26:54;13.15;;;5.72;;
25503;SDS011;13410;52.114;5.718;2022-12-29T10:29:33;6.50;;;2.95;;
25503;SDS011;13410;52.114;5.718;2022-12-29T10:32:05;8.57;;;3.75;;
25503;SDS011;13410;52.114;5.718;2022-12-29T10:34:37;10.77;;;4.18;;
25503;SDS011;13410;52.114;5.718;2022-12-29T10:37:12;11.32;;;4.07;;
25503;SDS011;13410;52.114;5.718;2022-12-29T10:39:51;11.70;;;4.03;;
25503;SDS011;13410;52.114;5.718;2022-12-29T10:42:25;12.65;;;3.75;;
25503;SDS011;13410;52.114;5.718;2022-12-29T10:44:53;9.43;;;2.95;;
25503;SDS011;13410;52.114;5.718;2022-12-29T10:47:22;10.60;;;3.58;;
25503;SDS011;13410;52.114;5.718;2022-12-29T10:49:50;12.48;;;4.00;;
25503;SDS011;13410;52.114;5.718;2022-12-29T10:52:17;10.90;;;5.10;;
25503;SDS011;13410;52.114;5.718;2022-12-29T10:54:55;11.15;;;3.50;;
25503;SDS011;13410;52.114;5.718;2022-12-29T10:57:40;8.77;;;3.42;;
25503;SDS011;13410;52.114;5.718;2022-12-29T11:00:21;13.93;;;3.78;;
25503;SDS011;13410;52.114;5.718;2022-12-29T11:05:43;10.95;;;4.85;;
25503;SDS011;13410;52.114;5.718;2022-12-29T11:08:18;15.13;;;4.63;;
25503;SDS011;13410;52.114;5.718;2022-12-29T11:10:46;13.45;;;5.32;;
25503;SDS011;13410;52.114;5.718;2022-12-29T11:13:25;11.60;;;3.78;;
25503;SDS011;13410;52.114;5.718;2022-12-29T11:15:52;14.50;;;4.40;;
25503;SDS011;13410;52.114;5.718;2022-12-29T11:18:19;13.57;;;4.72;;
25503;SDS011;13410;52.114;5.718;2022-12-29T11:20:52;13.98;;;5.07;;
25503;SDS011;13410;52.114;5.718;2022-12-29T11:23:21;21.90;;;10.27;;
25503;SDS011;13410;52.114;5.718;2022-12-29T11:26:48;11.27;;;5.15;;
25503;SDS011;13410;52.114;5.718;2022-12-29T11:28:47;15.07;;;5.45;;
25503;SDS011;13410;52.114;5.718;2022-12-29T11:31:29;15.02;;;4.30;;
25503;SDS011;13410;52.114;5.718;2022-12-29T11:33:55;14.55;;;4.32;;
25503;SDS011;13410;52.114;5.718;2022-12-29T11:36:21;13.85;;;4.13;;
25503;SDS011;13410;52.114;5.718;2022-12-29T11:38:49;17.50;;;4.88;;
25503;SDS011;13410;52.114;5.718;2022-12-29T11:41:26;13.00;;;3.95;;
25503;SDS011;13410;52.114;5.718;2022-12-29T11:43:55;15.50;;;4.53;;
25503;SDS011;13410;52.114;5.718;2022-12-29T11:46:26;22.08;;;11.90;;
25503;SDS011;13410;52.114;5.718;2022-12-29T11:48:57;17.55;;;5.80;;
25503;SDS011;13410;52.114;5.718;2022-12-29T11:51:26;18.67;;;4.35;;
25503;SDS011;13410;52.114;5.718;2022-12-29T11:53:56;16.73;;;5.05;;
25503;SDS011;13410;52.114;5.718;2022-12-29T11:56:39;14.70;;;4.65;;
25503;SDS011;13410;52.114;5.718;2022-12-29T11:59:53;16.23;;;6.13;;
25503;SDS011;13410;52.114;5.718;2022-12-29T12:01:55;15.73;;;5.53;;
25503;SDS011;13410;52.114;5.718;2022-12-29T12:04:23;20.73;;;8.32;;
25503;SDS011;13410;52.114;5.718;2022-12-29T12:09:29;24.45;;;8.95;;
25503;SDS011;13410;52.114;5.718;2022-12-29T12:12:01;10.95;;;4.15;;
25503;SDS011;13410;52.114;5.718;2022-12-29T12:14:32;15.90;;;6.15;;
25503;SDS011;13410;52.114;5.718;2022-12-29T12:17:14;26.52;;;12.77;;
25503;SDS011;13410;52.114;5.718;2022-12-29T12:19:45;21.30;;;8.70;;
25503;SDS011;13410;52.114;5.718;2022-12-29T12:25:01;10.13;;;4.20;;
25503;SDS011;13410;52.114;5.718;2022-12-29T12:27:42;16.35;;;6.85;;
25503;SDS011;13410;52.114;5.718;2022-12-29T12:30:15;18.98;;;8.27;;
25503;SDS011;13410;52.114;5.718;2022-12-29T12:32:57;31.25;;;17.23;;
25503;SDS011;13410;52.114;5.718;2022-12-29T12:41:00;11.23;;;3.65;;
25503;SDS011;13410;52.114;5.718;2022-12-29T12:43:46;17.98;;;7.95;;
25503;SDS011;13410;52.114;5.718;2022-12-29T12:49:28;16.65;;;4.22;;
25503;SDS011;13410;52.114;5.718;2022-12-29T12:55:18;23.25;;;6.13;;
25503;SDS011;13410;52.114;5.718;2022-12-29T13:15:07;18.58;;;4.28;;
25503;SDS011;13410;52.114;5.718;2022-12-29T13:21:03;19.65;;;6.07;;
25503;SDS011;13410;52.114;5.718;2022-12-29T13:31:44;21.92;;;6.40;;
25503;SDS011;13410;52.114;5.718;2022-12-29T13:34:31;19.35;;;5.50;;
25503;SDS011;13410;52.114;5.718;2022-12-29T13:37:15;19.15;;;6.35;;
25503;SDS011;13410;52.114;5.718;2022-12-29T13:39:46;33.53;;;5.15;;
25503;SDS011;13410;52.114;5.718;2022-12-29T13:42:17;19.50;;;5.40;;
25503;SDS011;13410;52.114;5.718;2022-12-29T13:44:45;21.02;;;6.10;;
25503;SDS011;13410;52.114;5.718;2022-12-29T13:49:52;15.45;;;6.20;;
25503;SDS011;13410;52.114;5.718;2022-12-29T13:57:53;22.45;;;8.88;;
25503;SDS011;13410;52.114;5.718;2022-12-29T14:00:55;16.73;;;5.88;;
25503;SDS011;13410;52.114;5.718;2022-12-29T14:03:53;19.63;;;5.05;;
25503;SDS011;13410;52.114;5.718;2022-12-29T14:08:49;20.17;;;5.90;;
25503;SDS011;13410;52.114;5.718;2022-12-29T14:11:39;12.90;;;6.20;;
25503;SDS011;13410;52.114;5.718;2022-12-29T14:14:19;16.83;;;6.50;;
25503;SDS011;13410;52.114;5.718;2022-12-29T14:16:52;23.83;;;10.88;;
25503;SDS011;13410;52.114;5.718;2022-12-29T14:19:19;15.75;;;7.72;;
25503;SDS011;13410;52.114;5.718;2022-12-29T14:21:59;20.67;;;7.80;;
25503;SDS011;13410;52.114;5.718;2022-12-29T14:34:52;13.20;;;5.65;;
25503;SDS011;13410;52.114;5.718;2022-12-29T14:42:44;12.20;;;5.65;;
25503;SDS011;13410;52.114;5.718;2022-12-29T14:47:50;9.65;;;3.97;;
25503;SDS011;13410;52.114;5.718;2022-12-29T14:50:18;8.18;;;3.33;;
25503;SDS011;13410;52.114;5.718;2022-12-29T14:57:43;6.20;;;2.65;;
25503;SDS011;13410;52.114;5.718;2022-12-29T15:02:45;10.80;;;4.53;;
25503;SDS011;13410;52.114;5.718;2022-12-29T15:05:22;12.68;;;5.35;;
25503;SDS011;13410;52.114;5.718;2022-12-29T15:07:53;9.32;;;4.05;;
25503;SDS011;13410;52.114;5.718;2022-12-29T15:10:20;8.50;;;4.60;;
25503;SDS011;13410;52.114;5.718;2022-12-29T15:12:53;20.05;;;8.93;;
25503;SDS011;13410;52.114;5.718;2022-12-29T15:17:50;11.50;;;4.07;;
25503;SDS011;13410;52.114;5.718;2022-12-29T15:22:45;10.93;;;4.88;;
25503;SDS011;13410;52.114;5.718;2022-12-29T15:25:19;12.88;;;4.22;;
25503;SDS011;13410;52.114;5.718;2022-12-29T15:27:48;17.67;;;7.90;;
25503;SDS011;13410;52.114;5.718;2022-12-29T15:30:16;17.38;;;7.07;;
25503;SDS011;13410;52.114;5.718;2022-12-29T15:32:42;15.20;;;7.80;;
25503;SDS011;13410;52.114;5.718;2022-12-29T15:35:22;18.95;;;10.45;;
25503;SDS011;13410;52.114;5.718;2022-12-29T15:37:56;18.40;;;6.88;;
25503;SDS011;13410;52.114;5.718;2022-12-29T15:40:30;23.90;;;12.20;;
25503;SDS011;13410;52.114;5.718;2022-12-29T15:43:03;20.10;;;7.70;;
25503;SDS011;13410;52.114;5.718;2022-12-29T15:45:38;12.20;;;5.90;;
25503;SDS011;13410;52.114;5.718;2022-12-29T15:48:10;17.10;;;5.85;;
25503;SDS011;13410;52.114;5.718;2022-12-29T15:50:43;12.73;;;4.35;;
25503;SDS011;13410;52.114;5.718;2022-12-29T15:53:10;15.13;;;5.07;;
25503;SDS011;13410;52.114;5.718;2022-12-29T15:55:38;12.20;;;5.28;;
25503;SDS011;13410;52.114;5.718;2022-12-29T15:58:17;22.08;;;10.25;;
25503;SDS011;13410;52.114;5.718;2022-12-29T16:00:49;17.02;;;10.38;;
25503;SDS011;13410;52.114;5.718;2022-12-29T16:03:20;13.35;;;6.88;;
25503;SDS011;13410;52.114;5.718;2022-12-29T16:05:54;18.40;;;9.00;;
25503;SDS011;13410;52.114;5.718;2022-12-29T16:08:30;15.13;;;6.72;;
25503;SDS011;13410;52.114;5.718;2022-12-29T16:10:58;11.55;;;5.82;;
25503;SDS011;13410;52.114;5.718;2022-12-29T16:13:33;13.10;;;6.03;;
25503;SDS011;13410;52.114;5.718;2022-12-29T16:16:07;19.75;;;9.60;;
25503;SDS011;13410;52.114;5.718;2022-12-29T16:18:43;12.67;;;6.70;;
25503;SDS011;13410;52.114;5.718;2022-12-29T16:21:26;15.57;;;7.68;;
25503;SDS011;13410;52.114;5.718;2022-12-29T16:23:55;17.27;;;7.40;;
25503;SDS011;13410;52.114;5.718;2022-12-29T16:26:26;13.88;;;6.47;;
25503;SDS011;13410;52.114;5.718;2022-12-29T16:28:54;17.00;;;7.78;;
25503;SDS011;13410;52.114;5.718;2022-12-29T16:31:24;9.98;;;4.20;;
25503;SDS011;13410;52.114;5.718;2022-12-29T16:33:58;15.32;;;5.53;;
25503;SDS011;13410;52.114;5.718;2022-12-29T16:36:39;11.85;;;4.35;;
25503;SDS011;13410;52.114;5.718;2022-12-29T16:39:21;12.10;;;4.20;;
25503;SDS011;13410;52.114;5.718;2022-12-29T16:41:55;15.02;;;3.85;;
25503;SDS011;13410;52.114;5.718;2022-12-29T16:44:22;10.15;;;4.07;;
25503;SDS011;13410;52.114;5.718;2022-12-29T16:47:16;11.18;;;4.30;;
25503;SDS011;13410;52.114;5.718;2022-12-29T16:49:47;10.70;;;3.08;;
25503;SDS011;13410;52.114;5.718;2022-12-29T16:52:18;10.63;;;3.97;;
25503;SDS011;13410;52.114;5.718;2022-12-29T16:54:51;7.43;;;2.30;;
25503;SDS011;13410;52.114;5.718;2022-12-29T16:57:21;10.82;;;3.33;;
25503;SDS011;13410;52.114;5.718;2022-12-29T16:59:50;15.55;;;6.35;;
25503;SDS011;13410;52.114;5.718;2022-12-29T17:02:19;29.45;;;15.48;;
25503;SDS011;13410;52.114;5.718;2022-12-29T17:04:46;14.93;;;7.40;;
25503;SDS011;13410;52.114;5.718;2022-12-29T17:07:18;10.43;;;4.72;;
25503;SDS011;13410;52.114;5.718;2022-12-29T17:09:46;11.02;;;4.85;;
25503;SDS011;13410;52.114;5.718;2022-12-29T17:12:14;11.25;;;3.33;;